This is the latest recevied weather packets stored in our database for station/object SQ5AAG-2. If no packets are shown the sender has not sent any weather packets the latest 1 day(s).
| Time | Temp. | Humidity | Pressure | Rain* | Wind** | Luminosity | Snow |
|---|---|---|---|---|---|---|---|
| 1836274711 | 13.33° C | 93% | 1008.7 hPa | 0 mm | 0 m/s | - | - |
| 1836274561 | 13.33° C | 93% | 1008.8 hPa | 0 mm | 0 m/s | - | - |
| 1836274410 | 13.33° C | 93% | 1008.8 hPa | 0 mm | 0 m/s | - | - |
| 1836274261 | 13.33° C | 93% | 1008.7 hPa | 0 mm | 0 m/s | - | - |
| 1836274110 | 13.33° C | 93% | 1008.8 hPa | 0 mm | 0 m/s | - | - |
| 1778024161 | 14.44° C | 78% | 991.4 hPa | 0 mm | 0 m/s | - | - |
| 1778023861 | 14.44° C | 77% | 991.5 hPa | 0 mm | 0 m/s | - | - |
| 1778023561 | 14.44° C | 77% | 991.5 hPa | 0 mm | 0 m/s | - | - |
| 1778023260 | 14.44° C | 77% | 991.4 hPa | 0 mm | 0 m/s | - | - |
| 1778022960 | 14.44° C | 78% | 991.2 hPa | 0 mm | 0 m/s | - | - |
| 1778022661 | 14.44° C | 77% | 991.4 hPa | 0 mm | 0 m/s | - | - |
| 1778022359 | 15° C | 77% | 991.3 hPa | 0 mm | 0 m/s | - | - |
| 1778022059 | 15° C | 75% | 991.3 hPa | 0 mm | 0 m/s | - | - |
| 1778021759 | 15° C | 75% | 991.1 hPa | 0 mm | 0 m/s | - | - |
| 1778021458 | 15° C | 75% | 991.3 hPa | 0 mm | 0 m/s | - | - |
| 1778021158 | 15.56° C | 75% | 991.1 hPa | 0 mm | 0 m/s | - | - |
| 1778020858 | 15.56° C | 73% | 991.2 hPa | 0 mm | 0 m/s | - | - |
| 1778020557 | 15.56° C | 73% | 991.1 hPa | 0 mm | 0 m/s | - | - |
| 1778020257 | 15.56° C | 72% | 991.2 hPa | 0 mm | 0 m/s | - | - |
| 1778019957 | 16.11° C | 72% | 991.2 hPa | 0 mm | 0 m/s | - | - |
| 1778019657 | 16.11° C | 72% | 991.2 hPa | 0 mm | 0 m/s | - | - |
| 1778019356 | 16.67° C | 72% | 991.2 hPa | 0 mm | 0.45 m/s, 180° | - | - |
| 1778019056 | 16.67° C | 72% | 991.2 hPa | 0 mm | 0.45 m/s, 135° | - | - |
| 1778018756 | 16.67° C | 71% | 991.2 hPa | 0 mm | 0 m/s | - | - |
| 1778018455 | 17.22° C | 71% | 991.2 hPa | 0 mm | 0 m/s | - | - |
* Rain latest hour (hover to see other rain measurements)
** Current wind speed in m/s (hover to see current wind gust speed)